Hauptseite
METAR-TAF:

METAR-TAF

Flughäfen :

Fliegerhorst Büchel

Büchel, Deutschland

Breite: 50-10N, Länge: 007-04E, Höhe: 478 m

Beobachtung

Neuester Wetterbericht von vor 41 Minuten, um 15:20 UTC
Wind 7 kt aus Ost
Temperatur 25°C
Luftfeuchtigkeit 34%
Luftdruck 1024 hPa
Sichtweite 10 km oder mehr

METAR: ETSB 231520Z AUTO 08007KT 9999 // ////// 25/08 Q1024 ///

Zeit: 18:01 (16:01 UTC)

Prognose

Neuester Wetterbericht von vor 5 Stunden und 56 Minuten, um 10:05 UTC
Gültige Prognose vom 23 um 10 UTC bis 23 um 17 UTC
Wind 8 kt aus Ost
Sichtweite: 1020 m
Leicht bewölkt in der Höhe von 30000 ft

TAF: ETSB 231005Z 2310/2317 09008KT 9999 NSW FEW300 CANCEL 1020 BY ETGL

Wetterbeobachtungen und Prognosen von mehr als 4000 Flughäfen (METAR und TAF Bericht).

Die verfügbaren Stationen werden durch gelbe und rote Markierungen auf der Karte dargestellt.

Führen Sie die Maus auf sie, um den Namen der Station zu sehen.

Darauf klicken, um die Beobachtung von Wetterbeobachtungen und Prognosen zu sehen.

Um die Karte zu ändern : klicken Sie auf den grünen Tasten mit einem schwarzen Kreuz Zum Vergrößern, auf den grünen Button mit einem Gedankenstrich zu verkleinern, oder auf die grünen Pfeile für benachbarte Karten.


METAR-TAF: